Estación Meteorológica Peña el Pijo (Robertgarden) [ 07/23/17 10:55:25 CEST ]

Fecha Hora Presion(HPa) Temp (°C) Humedad % Rocio (°C) Viento ( m/s) Direccion Lluvia 1Hora(mm) Lluvia 24H(mm) LLuvia Total(mm)
2017-Jul-12 01:08:59 1013.300 - - - - NW     1437.96
2017-Jul-12 02:09:22 1013.300 - - - - NW     1437.96
2017-Jul-12 03:02:05 1013.000 17.1 63 10.0         1437.96
2017-Jul-12 04:02:13 1012.900 16.5 63 9.4         1437.96
2017-Jul-12 05:01:51 1012.800 16.1 63 9.1         1437.96
2017-Jul-12 06:02:17 1012.900 15.5 66 9.2         1437.96
2017-Jul-12 07:01:38 1013.300 14.7 68 8.8         1437.96
2017-Jul-12 08:01:36 1013.300 16.1 72 11.1         1437.96
2017-Jul-12 09:01:41 1013.800 22.8 60 14.6         1437.96
2017-Jul-12 10:01:20 1013.800 28.4 48 16.3         1437.96
2017-Jul-12 11:01:54 1013.700 36.2 29 15.3         1437.96
2017-Jul-12 12:01:54 1013.700 38.9 23 13.8         1437.96
2017-Jul-12 13:01:42 1013.700 40.4 13 6.0 2.0 NW     1437.96
2017-Jul-12 14:01:57 1014.000 40.0 12 4.7         1437.96
2017-Jul-12 15:01:34 1013.900 40.7 12 5.2         1437.96
2017-Jul-12 16:01:50 1013.800 41.3 12 5.7         1437.96
2017-Jul-12 17:01:51 1014.100 41.3 12 5.7 3.1 NNE     1437.96
2017-Jul-12 18:01:45 1013.700 40.6 13 6.2         1437.96
2017-Jul-12 19:01:57 1013.600 39.1 13 5.0         1437.96
2017-Jul-12 20:01:59 1013.700 36.5 15 5.0         1437.96
2017-Jul-12 21:01:37 1014.100 32.8 20 6.9         1437.96
2017-Jul-12 22:01:47 1014.400 26.4 32 8.3         1437.96
2017-Jul-12 23:01:49 1015.200 23.4 35 7.0         1437.96

Temperatura Máxima:41°    Temperatura Mínima:
Presión Máxima:1015.200 Hpa    Presión Mínima:1012.800 Hpa


Volver